sensor_id;sensor_type;location;lat;lon;timestamp;P1;durP1;ratioP1;P2;durP2;ratioP2
20251;SDS011;10284;58.364;15.550;2023-12-22T00:00:59;0.57;;;0.57;;
20251;SDS011;10284;58.364;15.550;2023-12-22T00:03:25;0.60;;;0.50;;
20251;SDS011;10284;58.364;15.550;2023-12-22T00:05:50;0.90;;;0.80;;
20251;SDS011;10284;58.364;15.550;2023-12-22T00:08:15;1.20;;;0.60;;
20251;SDS011;10284;58.364;15.550;2023-12-22T00:10:41;2.33;;;0.70;;
20251;SDS011;10284;58.364;15.550;2023-12-22T00:13:06;0.52;;;0.50;;
20251;SDS011;10284;58.364;15.550;2023-12-22T00:15:31;0.50;;;0.50;;
20251;SDS011;10284;58.364;15.550;2023-12-22T00:17:57;0.40;;;0.40;;
20251;SDS011;10284;58.364;15.550;2023-12-22T00:20:22;0.47;;;0.40;;
20251;SDS011;10284;58.364;15.550;2023-12-22T00:22:48;0.38;;;0.38;;
20251;SDS011;10284;58.364;15.550;2023-12-22T00:25:13;0.30;;;0.30;;
20251;SDS011;10284;58.364;15.550;2023-12-22T00:27:39;0.30;;;0.30;;
20251;SDS011;10284;58.364;15.550;2023-12-22T00:30:04;1.08;;;0.40;;
20251;SDS011;10284;58.364;15.550;2023-12-22T00:32:30;0.30;;;0.30;;
20251;SDS011;10284;58.364;15.550;2023-12-22T00:34:55;0.30;;;0.30;;
20251;SDS011;10284;58.364;15.550;2023-12-22T00:37:23;0.63;;;0.38;;
20251;SDS011;10284;58.364;15.550;2023-12-22T00:39:48;0.40;;;0.40;;
20251;SDS011;10284;58.364;15.550;2023-12-22T00:42:14;0.40;;;0.40;;
20251;SDS011;10284;58.364;15.550;2023-12-22T00:44:39;0.45;;;0.45;;
20251;SDS011;10284;58.364;15.550;2023-12-22T00:47:05;0.40;;;0.40;;
20251;SDS011;10284;58.364;15.550;2023-12-22T00:49:30;0.40;;;0.40;;
20251;SDS011;10284;58.364;15.550;2023-12-22T00:51:56;0.40;;;0.40;;
20251;SDS011;10284;58.364;15.550;2023-12-22T00:54:21;0.35;;;0.35;;
20251;SDS011;10284;58.364;15.550;2023-12-22T00:56:46;0.40;;;0.40;;
20251;SDS011;10284;58.364;15.550;2023-12-22T00:59:12;0.40;;;0.40;;
20251;SDS011;10284;58.364;15.550;2023-12-22T01:01:37;0.40;;;0.40;;
20251;SDS011;10284;58.364;15.550;2023-12-22T01:04:03;1.60;;;0.40;;
20251;SDS011;10284;58.364;15.550;2023-12-22T01:06:28;0.55;;;0.47;;
20251;SDS011;10284;58.364;15.550;2023-12-22T01:08:54;0.73;;;0.50;;
20251;SDS011;10284;58.364;15.550;2023-12-22T01:11:19;0.93;;;0.50;;
20251;SDS011;10284;58.364;15.550;2023-12-22T01:13:44;0.70;;;0.60;;
20251;SDS011;10284;58.364;15.550;2023-12-22T01:16:10;0.90;;;0.68;;
20251;SDS011;10284;58.364;15.550;2023-12-22T01:18:35;0.47;;;0.47;;
20251;SDS011;10284;58.364;15.550;2023-12-22T01:21:01;1.00;;;0.70;;
20251;SDS011;10284;58.364;15.550;2023-12-22T01:23:26;1.73;;;0.60;;
20251;SDS011;10284;58.364;15.550;2023-12-22T01:25:51;1.00;;;0.85;;
20251;SDS011;10284;58.364;15.550;2023-12-22T01:28:17;0.77;;;0.60;;
20251;SDS011;10284;58.364;15.550;2023-12-22T01:30:42;3.38;;;0.50;;
20251;SDS011;10284;58.364;15.550;2023-12-22T01:33:08;0.60;;;0.60;;
20251;SDS011;10284;58.364;15.550;2023-12-22T01:35:33;3.22;;;0.57;;
20251;SDS011;10284;58.364;15.550;2023-12-22T01:37:58;0.55;;;0.55;;
20251;SDS011;10284;58.364;15.550;2023-12-22T01:40:24;0.45;;;0.45;;
20251;SDS011;10284;58.364;15.550;2023-12-22T01:42:49;0.50;;;0.50;;
20251;SDS011;10284;58.364;15.550;2023-12-22T01:45:15;0.50;;;0.50;;
20251;SDS011;10284;58.364;15.550;2023-12-22T01:47:40;1.48;;;0.50;;
20251;SDS011;10284;58.364;15.550;2023-12-22T01:50:07;0.50;;;0.50;;
20251;SDS011;10284;58.364;15.550;2023-12-22T01:52:35;0.32;;;0.32;;
20251;SDS011;10284;58.364;15.550;2023-12-22T01:55:02;0.50;;;0.50;;
20251;SDS011;10284;58.364;15.550;2023-12-22T01:57:27;0.68;;;0.45;;
20251;SDS011;10284;58.364;15.550;2023-12-22T01:59:53;0.52;;;0.52;;
20251;SDS011;10284;58.364;15.550;2023-12-22T02:02:19;0.50;;;0.50;;
20251;SDS011;10284;58.364;15.550;2023-12-22T02:04:44;0.60;;;0.60;;
20251;SDS011;10284;58.364;15.550;2023-12-22T02:07:10;0.55;;;0.55;;
20251;SDS011;10284;58.364;15.550;2023-12-22T02:09:36;0.60;;;0.60;;
20251;SDS011;10284;58.364;15.550;2023-12-22T02:12:02;0.50;;;0.50;;
20251;SDS011;10284;58.364;15.550;2023-12-22T02:14:28;0.50;;;0.50;;
20251;SDS011;10284;58.364;15.550;2023-12-22T02:17:02;0.45;;;0.45;;
20251;SDS011;10284;58.364;15.550;2023-12-22T02:22:04;0.73;;;0.40;;
20251;SDS011;10284;58.364;15.550;2023-12-22T02:24:31;0.70;;;0.50;;
20251;SDS011;10284;58.364;15.550;2023-12-22T02:26:58;0.47;;;0.40;;
20251;SDS011;10284;58.364;15.550;2023-12-22T02:29:38;0.52;;;0.50;;
20251;SDS011;10284;58.364;15.550;2023-12-22T02:32:09;0.50;;;0.50;;
20251;SDS011;10284;58.364;15.550;2023-12-22T02:34:37;0.40;;;0.40;;
20251;SDS011;10284;58.364;15.550;2023-12-22T02:37:08;0.68;;;0.50;;
20251;SDS011;10284;58.364;15.550;2023-12-22T02:39:34;0.65;;;0.50;;
20251;SDS011;10284;58.364;15.550;2023-12-22T02:42:00;0.50;;;0.50;;
20251;SDS011;10284;58.364;15.550;2023-12-22T02:44:26;0.60;;;0.50;;
20251;SDS011;10284;58.364;15.550;2023-12-22T02:46:52;1.50;;;0.50;;
20251;SDS011;10284;58.364;15.550;2023-12-22T02:49:17;0.40;;;0.40;;
20251;SDS011;10284;58.364;15.550;2023-12-22T02:51:44;0.45;;;0.45;;
20251;SDS011;10284;58.364;15.550;2023-12-22T02:54:09;0.77;;;0.50;;
20251;SDS011;10284;58.364;15.550;2023-12-22T02:56:35;0.60;;;0.60;;
20251;SDS011;10284;58.364;15.550;2023-12-22T02:59:00;2.50;;;0.65;;
20251;SDS011;10284;58.364;15.550;2023-12-22T03:01:25;0.60;;;0.60;;
20251;SDS011;10284;58.364;15.550;2023-12-22T03:03:51;0.60;;;0.60;;
20251;SDS011;10284;58.364;15.550;2023-12-22T03:06:16;0.50;;;0.50;;
20251;SDS011;10284;58.364;15.550;2023-12-22T03:08:42;1.88;;;0.55;;
20251;SDS011;10284;58.364;15.550;2023-12-22T03:11:07;0.60;;;0.52;;
20251;SDS011;10284;58.364;15.550;2023-12-22T03:13:32;1.08;;;0.52;;
20251;SDS011;10284;58.364;15.550;2023-12-22T03:15:58;0.60;;;0.60;;
20251;SDS011;10284;58.364;15.550;2023-12-22T03:18:23;3.25;;;0.73;;
20251;SDS011;10284;58.364;15.550;2023-12-22T03:20:48;1.45;;;0.60;;
20251;SDS011;10284;58.364;15.550;2023-12-22T03:23:14;1.00;;;0.57;;
20251;SDS011;10284;58.364;15.550;2023-12-22T03:25:39;1.25;;;0.77;;
20251;SDS011;10284;58.364;15.550;2023-12-22T03:28:04;2.60;;;0.80;;
20251;SDS011;10284;58.364;15.550;2023-12-22T03:30:30;0.80;;;0.80;;
20251;SDS011;10284;58.364;15.550;2023-12-22T03:32:55;1.67;;;0.60;;
20251;SDS011;10284;58.364;15.550;2023-12-22T03:35:21;1.50;;;0.57;;
20251;SDS011;10284;58.364;15.550;2023-12-22T03:37:46;1.42;;;0.60;;
20251;SDS011;10284;58.364;15.550;2023-12-22T03:40:12;0.70;;;0.52;;
20251;SDS011;10284;58.364;15.550;2023-12-22T03:42:37;1.15;;;0.60;;
20251;SDS011;10284;58.364;15.550;2023-12-22T03:45:03;1.80;;;0.60;;
20251;SDS011;10284;58.364;15.550;2023-12-22T03:47:28;0.95;;;0.50;;
20251;SDS011;10284;58.364;15.550;2023-12-22T03:49:54;1.35;;;0.65;;
20251;SDS011;10284;58.364;15.550;2023-12-22T03:52:19;1.23;;;0.50;;
20251;SDS011;10284;58.364;15.550;2023-12-22T03:54:45;1.30;;;0.70;;
20251;SDS011;10284;58.364;15.550;2023-12-22T03:57:10;0.50;;;0.50;;
20251;SDS011;10284;58.364;15.550;2023-12-22T03:59:35;1.00;;;0.65;;
20251;SDS011;10284;58.364;15.550;2023-12-22T04:02:01;0.50;;;0.50;;
20251;SDS011;10284;58.364;15.550;2023-12-22T04:04:27;1.55;;;0.50;;
20251;SDS011;10284;58.364;15.550;2023-12-22T04:06:53;0.73;;;0.50;;
20251;SDS011;10284;58.364;15.550;2023-12-22T04:09:19;3.03;;;0.82;;
20251;SDS011;10284;58.364;15.550;2023-12-22T04:11:44;0.98;;;0.75;;
20251;SDS011;10284;58.364;15.550;2023-12-22T04:14:09;2.58;;;0.65;;
20251;SDS011;10284;58.364;15.550;2023-12-22T04:16:38;2.47;;;0.63;;
20251;SDS011;10284;58.364;15.550;2023-12-22T04:19:03;0.57;;;0.57;;
20251;SDS011;10284;58.364;15.550;2023-12-22T04:21:29;0.73;;;0.60;;
20251;SDS011;10284;58.364;15.550;2023-12-22T04:23:54;0.60;;;0.50;;
20251;SDS011;10284;58.364;15.550;2023-12-22T04:26:20;0.55;;;0.52;;
20251;SDS011;10284;58.364;15.550;2023-12-22T04:28:45;0.80;;;0.60;;
20251;SDS011;10284;58.364;15.550;2023-12-22T04:31:10;0.40;;;0.40;;
20251;SDS011;10284;58.364;15.550;2023-12-22T04:33:36;0.57;;;0.57;;
20251;SDS011;10284;58.364;15.550;2023-12-22T04:36:01;0.55;;;0.52;;
20251;SDS011;10284;58.364;15.550;2023-12-22T04:38:27;1.30;;;0.68;;
20251;SDS011;10284;58.364;15.550;2023-12-22T04:40:52;0.60;;;0.60;;
20251;SDS011;10284;58.364;15.550;2023-12-22T04:43:18;1.52;;;0.80;;
20251;SDS011;10284;58.364;15.550;2023-12-22T04:45:43;0.75;;;0.65;;
20251;SDS011;10284;58.364;15.550;2023-12-22T04:48:09;0.45;;;0.45;;
20251;SDS011;10284;58.364;15.550;2023-12-22T04:50:34;0.60;;;0.60;;
20251;SDS011;10284;58.364;15.550;2023-12-22T04:52:59;1.33;;;0.80;;
20251;SDS011;10284;58.364;15.550;2023-12-22T04:55:25;0.70;;;0.70;;
20251;SDS011;10284;58.364;15.550;2023-12-22T04:57:50;1.17;;;0.90;;
20251;SDS011;10284;58.364;15.550;2023-12-22T05:00:15;0.88;;;0.63;;
20251;SDS011;10284;58.364;15.550;2023-12-22T05:02:41;1.98;;;0.70;;
20251;SDS011;10284;58.364;15.550;2023-12-22T05:05:06;3.00;;;0.90;;
20251;SDS011;10284;58.364;15.550;2023-12-22T05:07:33;3.33;;;0.90;;
20251;SDS011;10284;58.364;15.550;2023-12-22T05:09:58;1.10;;;0.90;;
20251;SDS011;10284;58.364;15.550;2023-12-22T05:12:24;1.17;;;0.80;;
20251;SDS011;10284;58.364;15.550;2023-12-22T05:14:49;2.03;;;0.90;;
20251;SDS011;10284;58.364;15.550;2023-12-22T05:17:15;1.23;;;0.80;;
20251;SDS011;10284;58.364;15.550;2023-12-22T05:19:40;1.63;;;0.75;;
20251;SDS011;10284;58.364;15.550;2023-12-22T05:22:05;2.10;;;1.50;;
20251;SDS011;10284;58.364;15.550;2023-12-22T05:24:31;0.73;;;0.70;;
20251;SDS011;10284;58.364;15.550;2023-12-22T05:26:56;2.70;;;1.00;;
20251;SDS011;10284;58.364;15.550;2023-12-22T05:29:21;1.50;;;1.05;;
20251;SDS011;10284;58.364;15.550;2023-12-22T05:31:47;1.50;;;1.00;;
20251;SDS011;10284;58.364;15.550;2023-12-22T05:34:12;2.78;;;1.05;;
20251;SDS011;10284;58.364;15.550;2023-12-22T05:36:38;3.15;;;1.02;;
20251;SDS011;10284;58.364;15.550;2023-12-22T05:39:03;2.92;;;1.10;;
20251;SDS011;10284;58.364;15.550;2023-12-22T05:41:28;2.40;;;1.10;;
20251;SDS011;10284;58.364;15.550;2023-12-22T05:43:54;3.00;;;1.27;;
20251;SDS011;10284;58.364;15.550;2023-12-22T05:46:19;3.35;;;1.48;;
20251;SDS011;10284;58.364;15.550;2023-12-22T05:48:44;1.48;;;1.00;;
20251;SDS011;10284;58.364;15.550;2023-12-22T05:51:10;1.55;;;0.90;;
20251;SDS011;10284;58.364;15.550;2023-12-22T05:53:39;1.98;;;0.95;;
20251;SDS011;10284;58.364;15.550;2023-12-22T05:56:05;2.13;;;1.02;;
20251;SDS011;10284;58.364;15.550;2023-12-22T05:58:42;4.32;;;1.25;;
20251;SDS011;10284;58.364;15.550;2023-12-22T06:01:07;4.00;;;1.10;;
20251;SDS011;10284;58.364;15.550;2023-12-22T06:03:33;6.07;;;1.40;;
20251;SDS011;10284;58.364;15.550;2023-12-22T06:05:58;1.73;;;1.23;;
20251;SDS011;10284;58.364;15.550;2023-12-22T06:08:23;1.92;;;1.05;;
20251;SDS011;10284;58.364;15.550;2023-12-22T06:10:49;5.72;;;1.42;;
20251;SDS011;10284;58.364;15.550;2023-12-22T06:13:14;1.63;;;0.90;;
20251;SDS011;10284;58.364;15.550;2023-12-22T06:15:40;6.75;;;1.25;;
20251;SDS011;10284;58.364;15.550;2023-12-22T06:18:05;2.90;;;1.33;;
20251;SDS011;10284;58.364;15.550;2023-12-22T06:20:31;2.55;;;1.20;;
20251;SDS011;10284;58.364;15.550;2023-12-22T06:22:56;6.13;;;1.80;;
20251;SDS011;10284;58.364;15.550;2023-12-22T06:25:21;5.53;;;1.40;;
20251;SDS011;10284;58.364;15.550;2023-12-22T06:27:47;3.10;;;0.98;;
20251;SDS011;10284;58.364;15.550;2023-12-22T06:30:12;4.30;;;1.48;;
20251;SDS011;10284;58.364;15.550;2023-12-22T06:32:38;2.17;;;1.23;;
20251;SDS011;10284;58.364;15.550;2023-12-22T06:35:06;2.90;;;1.20;;
20251;SDS011;10284;58.364;15.550;2023-12-22T06:37:32;3.85;;;1.70;;
20251;SDS011;10284;58.364;15.550;2023-12-22T06:39:58;5.07;;;1.17;;
20251;SDS011;10284;58.364;15.550;2023-12-22T06:42:23;2.85;;;1.40;;
20251;SDS011;10284;58.364;15.550;2023-12-22T06:44:48;3.45;;;1.25;;
20251;SDS011;10284;58.364;15.550;2023-12-22T06:47:14;2.70;;;1.40;;
20251;SDS011;10284;58.364;15.550;2023-12-22T06:49:39;3.13;;;1.30;;
20251;SDS011;10284;58.364;15.550;2023-12-22T06:52:05;7.82;;;1.58;;
20251;SDS011;10284;58.364;15.550;2023-12-22T06:54:30;3.17;;;1.77;;
20251;SDS011;10284;58.364;15.550;2023-12-22T06:56:55;4.05;;;1.73;;
20251;SDS011;10284;58.364;15.550;2023-12-22T06:59:21;2.67;;;1.40;;
20251;SDS011;10284;58.364;15.550;2023-12-22T07:01:46;8.15;;;1.40;;
20251;SDS011;10284;58.364;15.550;2023-12-22T07:04:11;4.95;;;1.48;;
20251;SDS011;10284;58.364;15.550;2023-12-22T07:06:37;7.72;;;1.85;;
20251;SDS011;10284;58.364;15.550;2023-12-22T07:11:37;4.35;;;1.80;;
20251;SDS011;10284;58.364;15.550;2023-12-22T07:14:11;5.15;;;2.10;;
20251;SDS011;10284;58.364;15.550;2023-12-22T07:16:37;4.35;;;1.70;;
20251;SDS011;10284;58.364;15.550;2023-12-22T07:19:03;3.13;;;1.83;;
20251;SDS011;10284;58.364;15.550;2023-12-22T07:21:29;5.80;;;1.80;;
20251;SDS011;10284;58.364;15.550;2023-12-22T07:23:54;5.80;;;1.95;;
20251;SDS011;10284;58.364;15.550;2023-12-22T07:26:19;8.30;;;2.22;;
20251;SDS011;10284;58.364;15.550;2023-12-22T07:28:46;4.57;;;1.70;;
20251;SDS011;10284;58.364;15.550;2023-12-22T07:31:12;6.18;;;1.55;;
20251;SDS011;10284;58.364;15.550;2023-12-22T07:33:39;4.60;;;1.73;;
20251;SDS011;10284;58.364;15.550;2023-12-22T07:36:05;5.70;;;1.92;;
20251;SDS011;10284;58.364;15.550;2023-12-22T07:38:31;7.03;;;2.05;;
20251;SDS011;10284;58.364;15.550;2023-12-22T07:40:56;4.97;;;1.92;;
20251;SDS011;10284;58.364;15.550;2023-12-22T07:43:22;9.57;;;2.30;;
20251;SDS011;10284;58.364;15.550;2023-12-22T07:45:47;4.20;;;1.92;;
20251;SDS011;10284;58.364;15.550;2023-12-22T07:48:15;5.90;;;1.95;;
20251;SDS011;10284;58.364;15.550;2023-12-22T07:50:40;6.95;;;2.42;;
20251;SDS011;10284;58.364;15.550;2023-12-22T07:53:07;5.20;;;1.95;;
20251;SDS011;10284;58.364;15.550;2023-12-22T07:55:33;8.13;;;2.42;;
20251;SDS011;10284;58.364;15.550;2023-12-22T07:57:59;7.20;;;2.35;;
20251;SDS011;10284;58.364;15.550;2023-12-22T08:00:24;9.68;;;2.60;;
20251;SDS011;10284;58.364;15.550;2023-12-22T08:02:50;8.00;;;2.38;;
20251;SDS011;10284;58.364;15.550;2023-12-22T08:05:15;6.88;;;2.75;;
20251;SDS011;10284;58.364;15.550;2023-12-22T08:07:40;6.63;;;2.50;;
20251;SDS011;10284;58.364;15.550;2023-12-22T08:10:06;8.80;;;3.08;;
20251;SDS011;10284;58.364;15.550;2023-12-22T08:12:31;12.05;;;2.65;;
20251;SDS011;10284;58.364;15.550;2023-12-22T08:14:57;5.47;;;2.40;;
20251;SDS011;10284;58.364;15.550;2023-12-22T08:17:23;10.45;;;2.88;;
20251;SDS011;10284;58.364;15.550;2023-12-22T08:19:49;10.18;;;3.00;;
20251;SDS011;10284;58.364;15.550;2023-12-22T08:22:14;10.05;;;2.65;;
20251;SDS011;10284;58.364;15.550;2023-12-22T08:24:40;10.60;;;3.10;;
20251;SDS011;10284;58.364;15.550;2023-12-22T08:27:06;12.48;;;3.70;;
20251;SDS011;10284;58.364;15.550;2023-12-22T08:29:32;10.23;;;3.00;;
20251;SDS011;10284;58.364;15.550;2023-12-22T08:31:57;13.70;;;3.20;;
20251;SDS011;10284;58.364;15.550;2023-12-22T08:34:23;11.52;;;3.35;;
20251;SDS011;10284;58.364;15.550;2023-12-22T08:36:49;9.82;;;2.72;;
20251;SDS011;10284;58.364;15.550;2023-12-22T08:39:14;9.75;;;2.67;;
20251;SDS011;10284;58.364;15.550;2023-12-22T08:41:39;17.73;;;3.95;;
20251;SDS011;10284;58.364;15.550;2023-12-22T08:44:05;11.10;;;3.17;;
20251;SDS011;10284;58.364;15.550;2023-12-22T08:46:31;13.80;;;3.88;;
20251;SDS011;10284;58.364;15.550;2023-12-22T08:48:56;10.73;;;3.53;;
20251;SDS011;10284;58.364;15.550;2023-12-22T08:51:22;9.68;;;3.38;;
20251;SDS011;10284;58.364;15.550;2023-12-22T08:53:48;15.75;;;3.92;;
20251;SDS011;10284;58.364;15.550;2023-12-22T08:56:21;9.93;;;3.25;;
20251;SDS011;10284;58.364;15.550;2023-12-22T08:58:47;12.80;;;3.60;;
20251;SDS011;10284;58.364;15.550;2023-12-22T09:01:15;13.35;;;4.03;;
20251;SDS011;10284;58.364;15.550;2023-12-22T09:03:40;11.05;;;3.17;;
20251;SDS011;10284;58.364;15.550;2023-12-22T09:06:10;11.75;;;3.92;;
20251;SDS011;10284;58.364;15.550;2023-12-22T09:08:39;15.77;;;3.35;;
20251;SDS011;10284;58.364;15.550;2023-12-22T09:11:05;10.60;;;3.35;;
20251;SDS011;10284;58.364;15.550;2023-12-22T09:13:30;10.27;;;3.08;;
20251;SDS011;10284;58.364;15.550;2023-12-22T09:15:56;8.23;;;2.72;;
20251;SDS011;10284;58.364;15.550;2023-12-22T09:18:23;9.88;;;2.80;;
20251;SDS011;10284;58.364;15.550;2023-12-22T09:20:48;9.23;;;3.42;;
20251;SDS011;10284;58.364;15.550;2023-12-22T09:23:14;12.00;;;3.25;;
20251;SDS011;10284;58.364;15.550;2023-12-22T09:25:39;12.48;;;3.10;;
20251;SDS011;10284;58.364;15.550;2023-12-22T09:28:05;10.63;;;3.25;;
20251;SDS011;10284;58.364;15.550;2023-12-22T09:30:37;8.93;;;3.03;;
20251;SDS011;10284;58.364;15.550;2023-12-22T09:33:02;12.80;;;3.30;;
20251;SDS011;10284;58.364;15.550;2023-12-22T09:35:29;11.43;;;3.38;;
20251;SDS011;10284;58.364;15.550;2023-12-22T09:37:54;12.18;;;3.83;;
20251;SDS011;10284;58.364;15.550;2023-12-22T09:40:20;13.05;;;3.05;;
20251;SDS011;10284;58.364;15.550;2023-12-22T09:42:47;9.55;;;2.95;;
20251;SDS011;10284;58.364;15.550;2023-12-22T09:45:12;10.45;;;3.08;;
20251;SDS011;10284;58.364;15.550;2023-12-22T09:47:39;10.27;;;2.80;;
20251;SDS011;10284;58.364;15.550;2023-12-22T09:50:06;14.93;;;3.28;;
20251;SDS011;10284;58.364;15.550;2023-12-22T09:52:32;10.45;;;3.30;;
20251;SDS011;10284;58.364;15.550;2023-12-22T09:55:00;7.45;;;2.95;;
20251;SDS011;10284;58.364;15.550;2023-12-22T09:57:27;9.10;;;3.10;;
20251;SDS011;10284;58.364;15.550;2023-12-22T09:59:53;10.10;;;2.85;;
20251;SDS011;10284;58.364;15.550;2023-12-22T10:02:19;9.65;;;3.15;;
20251;SDS011;10284;58.364;15.550;2023-12-22T10:04:45;17.42;;;3.47;;
20251;SDS011;10284;58.364;15.550;2023-12-22T10:07:10;9.77;;;3.00;;
20251;SDS011;10284;58.364;15.550;2023-12-22T10:09:38;13.60;;;2.88;;
20251;SDS011;10284;58.364;15.550;2023-12-22T10:12:04;17.38;;;3.30;;
20251;SDS011;10284;58.364;15.550;2023-12-22T10:14:30;11.07;;;3.05;;
20251;SDS011;10284;58.364;15.550;2023-12-22T10:16:56;16.00;;;2.90;;
20251;SDS011;10284;58.364;15.550;2023-12-22T10:19:22;11.90;;;3.25;;
20251;SDS011;10284;58.364;15.550;2023-12-22T10:21:50;10.98;;;3.03;;
20251;SDS011;10284;58.364;15.550;2023-12-22T10:27:07;13.70;;;3.20;;
20251;SDS011;10284;58.364;15.550;2023-12-22T10:29:33;15.25;;;3.65;;
20251;SDS011;10284;58.364;15.550;2023-12-22T10:32:00;15.43;;;3.63;;
20251;SDS011;10284;58.364;15.550;2023-12-22T10:34:26;13.52;;;2.83;;
20251;SDS011;10284;58.364;15.550;2023-12-22T10:36:52;14.43;;;3.90;;
20251;SDS011;10284;58.364;15.550;2023-12-22T10:39:17;11.65;;;3.88;;
20251;SDS011;10284;58.364;15.550;2023-12-22T10:41:43;20.20;;;4.25;;
20251;SDS011;10284;58.364;15.550;2023-12-22T10:44:09;15.07;;;4.13;;
20251;SDS011;10284;58.364;15.550;2023-12-22T10:46:34;13.65;;;4.50;;
20251;SDS011;10284;58.364;15.550;2023-12-22T10:49:00;16.27;;;3.63;;
20251;SDS011;10284;58.364;15.550;2023-12-22T10:51:28;15.40;;;4.00;;
20251;SDS011;10284;58.364;15.550;2023-12-22T10:53:57;10.75;;;3.88;;
20251;SDS011;10284;58.364;15.550;2023-12-22T10:56:22;16.42;;;3.65;;
20251;SDS011;10284;58.364;15.550;2023-12-22T10:58:48;16.30;;;3.63;;
20251;SDS011;10284;58.364;15.550;2023-12-22T11:01:14;17.92;;;4.80;;
20251;SDS011;10284;58.364;15.550;2023-12-22T11:03:39;13.15;;;4.38;;
20251;SDS011;10284;58.364;15.550;2023-12-22T11:06:10;15.98;;;3.95;;
20251;SDS011;10284;58.364;15.550;2023-12-22T11:08:37;16.83;;;4.65;;
20251;SDS011;10284;58.364;15.550;2023-12-22T11:11:04;17.65;;;3.53;;
20251;SDS011;10284;58.364;15.550;2023-12-22T11:13:39;17.73;;;3.85;;
20251;SDS011;10284;58.364;15.550;2023-12-22T11:16:05;22.65;;;4.88;;
20251;SDS011;10284;58.364;15.550;2023-12-22T11:18:31;21.08;;;4.70;;
20251;SDS011;10284;58.364;15.550;2023-12-22T11:20:58;21.55;;;4.88;;
20251;SDS011;10284;58.364;15.550;2023-12-22T11:23:24;22.70;;;5.20;;
20251;SDS011;10284;58.364;15.550;2023-12-22T11:25:50;20.98;;;4.85;;
20251;SDS011;10284;58.364;15.550;2023-12-22T11:28:18;20.52;;;4.50;;
20251;SDS011;10284;58.364;15.550;2023-12-22T11:30:44;19.25;;;4.30;;
20251;SDS011;10284;58.364;15.550;2023-12-22T11:33:10;26.35;;;4.20;;
20251;SDS011;10284;58.364;15.550;2023-12-22T11:35:36;15.82;;;4.10;;
20251;SDS011;10284;58.364;15.550;2023-12-22T11:38:02;15.15;;;3.55;;
20251;SDS011;10284;58.364;15.550;2023-12-22T11:40:28;21.38;;;4.90;;
20251;SDS011;10284;58.364;15.550;2023-12-22T11:42:54;18.08;;;4.35;;
20251;SDS011;10284;58.364;15.550;2023-12-22T11:45:19;15.32;;;4.78;;
20251;SDS011;10284;58.364;15.550;2023-12-22T11:47:47;20.75;;;4.63;;
20251;SDS011;10284;58.364;15.550;2023-12-22T11:50:14;26.05;;;5.78;;
20251;SDS011;10284;58.364;15.550;2023-12-22T11:52:53;20.90;;;4.35;;
20251;SDS011;10284;58.364;15.550;2023-12-22T11:55:38;20.35;;;4.82;;
20251;SDS011;10284;58.364;15.550;2023-12-22T11:58:36;20.77;;;5.47;;
20251;SDS011;10284;58.364;15.550;2023-12-22T12:01:01;22.90;;;4.57;;
20251;SDS011;10284;58.364;15.550;2023-12-22T12:03:31;24.20;;;4.95;;
20251;SDS011;10284;58.364;15.550;2023-12-22T12:08:55;15.32;;;4.82;;
20251;SDS011;10284;58.364;15.550;2023-12-22T12:14:21;19.92;;;4.82;;
20251;SDS011;10284;58.364;15.550;2023-12-22T12:16:48;22.65;;;4.55;;
20251;SDS011;10284;58.364;15.550;2023-12-22T12:19:13;20.60;;;5.65;;
20251;SDS011;10284;58.364;15.550;2023-12-22T12:21:39;28.55;;;6.28;;
20251;SDS011;10284;58.364;15.550;2023-12-22T12:24:04;26.38;;;4.93;;
20251;SDS011;10284;58.364;15.550;2023-12-22T12:26:30;15.13;;;4.03;;
20251;SDS011;10284;58.364;15.550;2023-12-22T12:28:57;21.30;;;4.90;;
20251;SDS011;10284;58.364;15.550;2023-12-22T12:31:35;15.18;;;4.85;;
20251;SDS011;10284;58.364;15.550;2023-12-22T12:34:01;21.27;;;5.47;;
20251;SDS011;10284;58.364;15.550;2023-12-22T12:36:27;17.50;;;4.57;;
20251;SDS011;10284;58.364;15.550;2023-12-22T12:38:58;26.38;;;5.32;;
20251;SDS011;10284;58.364;15.550;2023-12-22T12:41:31;21.00;;;4.38;;
20251;SDS011;10284;58.364;15.550;2023-12-22T12:44:00;18.77;;;4.72;;
20251;SDS011;10284;58.364;15.550;2023-12-22T12:46:35;23.08;;;5.55;;
20251;SDS011;10284;58.364;15.550;2023-12-22T12:49:11;21.52;;;5.45;;
20251;SDS011;10284;58.364;15.550;2023-12-22T12:51:37;25.98;;;4.75;;
20251;SDS011;10284;58.364;15.550;2023-12-22T12:54:06;21.30;;;5.22;;
20251;SDS011;10284;58.364;15.550;2023-12-22T12:56:42;19.58;;;5.28;;
20251;SDS011;10284;58.364;15.550;2023-12-22T12:59:08;29.60;;;5.93;;
20251;SDS011;10284;58.364;15.550;2023-12-22T13:01:41;23.23;;;4.72;;
20251;SDS011;10284;58.364;15.550;2023-12-22T13:04:07;22.15;;;4.78;;
20251;SDS011;10284;58.364;15.550;2023-12-22T13:06:33;17.85;;;5.75;;
20251;SDS011;10284;58.364;15.550;2023-12-22T13:08:58;16.55;;;4.50;;
20251;SDS011;10284;58.364;15.550;2023-12-22T13:11:25;20.73;;;4.85;;
20251;SDS011;10284;58.364;15.550;2023-12-22T13:13:52;24.92;;;5.47;;
20251;SDS011;10284;58.364;15.550;2023-12-22T13:16:19;19.33;;;5.25;;
20251;SDS011;10284;58.364;15.550;2023-12-22T13:18:45;18.85;;;5.00;;
20251;SDS011;10284;58.364;15.550;2023-12-22T13:21:11;19.48;;;4.65;;
20251;SDS011;10284;58.364;15.550;2023-12-22T13:23:36;19.55;;;4.68;;
20251;SDS011;10284;58.364;15.550;2023-12-22T13:26:02;13.05;;;4.07;;
20251;SDS011;10284;58.364;15.550;2023-12-22T13:28:27;23.63;;;5.32;;
20251;SDS011;10284;58.364;15.550;2023-12-22T13:30:53;21.40;;;5.10;;
20251;SDS011;10284;58.364;15.550;2023-12-22T13:33:19;20.00;;;5.07;;
20251;SDS011;10284;58.364;15.550;2023-12-22T13:35:44;24.80;;;5.05;;
20251;SDS011;10284;58.364;15.550;2023-12-22T13:38:11;20.88;;;5.32;;
20251;SDS011;10284;58.364;15.550;2023-12-22T13:40:37;20.08;;;5.65;;
20251;SDS011;10284;58.364;15.550;2023-12-22T13:43:03;22.15;;;5.60;;
20251;SDS011;10284;58.364;15.550;2023-12-22T13:45:29;21.38;;;5.13;;
20251;SDS011;10284;58.364;15.550;2023-12-22T13:47:56;17.60;;;6.03;;
20251;SDS011;10284;58.364;15.550;2023-12-22T13:50:21;19.83;;;5.57;;
20251;SDS011;10284;58.364;15.550;2023-12-22T13:52:50;22.38;;;5.03;;
20251;SDS011;10284;58.364;15.550;2023-12-22T13:55:16;20.45;;;5.20;;
20251;SDS011;10284;58.364;15.550;2023-12-22T13:57:43;22.35;;;4.75;;
20251;SDS011;10284;58.364;15.550;2023-12-22T14:02:43;19.98;;;4.80;;
20251;SDS011;10284;58.364;15.550;2023-12-22T14:05:09;19.65;;;4.28;;
20251;SDS011;10284;58.364;15.550;2023-12-22T14:07:34;24.88;;;5.20;;
20251;SDS011;10284;58.364;15.550;2023-12-22T14:10:06;18.52;;;4.85;;
20251;SDS011;10284;58.364;15.550;2023-12-22T14:12:32;21.48;;;5.60;;
20251;SDS011;10284;58.364;15.550;2023-12-22T14:14:58;22.02;;;5.38;;
20251;SDS011;10284;58.364;15.550;2023-12-22T14:17:23;22.70;;;4.63;;
20251;SDS011;10284;58.364;15.550;2023-12-22T14:19:49;18.55;;;5.25;;
20251;SDS011;10284;58.364;15.550;2023-12-22T14:22:14;14.18;;;5.00;;
20251;SDS011;10284;58.364;15.550;2023-12-22T14:24:40;20.52;;;5.07;;
20251;SDS011;10284;58.364;15.550;2023-12-22T14:27:05;13.98;;;4.00;;
20251;SDS011;10284;58.364;15.550;2023-12-22T14:29:31;13.55;;;4.22;;
20251;SDS011;10284;58.364;15.550;2023-12-22T14:31:58;15.15;;;3.88;;
20251;SDS011;10284;58.364;15.550;2023-12-22T14:34:23;11.48;;;3.75;;
20251;SDS011;10284;58.364;15.550;2023-12-22T14:36:49;19.50;;;4.47;;
20251;SDS011;10284;58.364;15.550;2023-12-22T14:39:14;14.43;;;4.28;;